Time;durP1;ratioP1;P1;durP2;ratioP2;P2;SDS_P1;SDS_P2;PMS_P1;PMS_P2;Temp;Humidity;BMP_temperature;BMP_pressure;BME280_temperature;BME280_humidity;BME280_pressure;Samples;Min_cycle;Max_cycle;Signal;HPM_P1;HPM_P2
2022/08/13 00:01:15;;;;;;;6.43;5.82;;;;;;;19.67;nan;101569.53;5053204;28;20037;-60
2022/08/13 00:03:42;;;;;;;7.85;6.97;;;;;;;19.61;nan;101570.75;5051895;28;20037;-60
2022/08/13 00:06:08;;;;;;;9.65;6.40;;;;;;;19.24;nan;101512.34;5053106;28;20040;-61
2022/08/13 00:08:35;;;;;;;7.25;5.80;;;;;;;19.21;nan;101502.72;5051785;28;20633;-61
2022/08/13 00:11:03;;;;;;;7.05;6.35;;;;;;;19.50;nan;101563.34;5017213;28;20116;-61
2022/08/13 00:13:28;;;;;;;6.80;6.22;;;;;;;19.16;nan;101511.94;5012084;28;20080;-61
2022/08/13 00:15:54;;;;;;;7.97;6.13;;;;;;;19.39;nan;101555.09;5013270;28;20041;-61
2022/08/13 00:18:22;;;;;;;7.22;5.63;;;;;;;19.09;nan;101509.63;5013258;28;20046;-61
2022/08/13 00:20:51;;;;;;;8.02;6.10;;;;;;;19.30;nan;101560.91;5013124;28;20076;-61
2022/08/13 00:23:18;;;;;;;6.82;6.22;;;;;;;19.30;nan;101555.59;5013691;28;20132;-61
2022/08/13 00:25:45;;;;;;;7.55;6.20;;;;;;;19.26;nan;101564.72;5013089;28;20092;-60
2022/08/13 00:28:11;;;;;;;7.25;6.35;;;;;;;19.16;nan;101550.19;5013122;28;20026;-60
2022/08/13 00:30:38;;;;;;;7.28;6.63;;;;;;;18.87;nan;101502.94;5010833;28;20122;-60
2022/08/13 00:33:12;;;;;;;6.80;6.20;;;;;;;18.93;nan;101516.78;5012793;28;20033;-61
2022/08/13 00:35:41;;;;;;;6.93;6.25;;;;;;;19.06;nan;101559.63;5011807;28;20068;-61
2022/08/13 00:38:15;;;;;;;6.97;6.18;;;;;;;18.98;nan;101548.53;5013169;28;20030;-61
2022/08/13 00:40:45;;;;;;;9.40;7.05;;;;;;;18.66;nan;101512.13;5012859;28;20036;-60
2022/08/13 00:43:11;;;;;;;6.25;5.70;;;;;;;18.87;nan;101561.63;5011753;28;20469;-60
2022/08/13 00:45:36;;;;;;;6.72;5.75;;;;;;;;;;5011454;28;20029;-59
2022/08/13 00:50:48;;;;;;;6.65;6.05;;;;;;;;;;5012997;28;20049;-59
2022/08/13 00:53:17;;;;;;;7.78;5.53;;;;;;;;;;5012641;28;20532;-59
2022/08/13 00:55:42;;;;;;;7.30;6.45;;;;;;;;;;5012450;28;20025;-60
2022/08/13 00:58:07;;;;;;;6.65;5.85;;;;;;;;;;5012495;28;20026;-60
2022/08/13 01:00:33;;;;;;;7.43;6.70;;;;;;;;;;5012516;28;20037;-61
2022/08/13 01:02:58;;;;;;;10.35;6.72;;;;;;;;;;5012587;28;20823;-59
2022/08/13 01:05:25;;;;;;;9.17;6.23;;;;;;;18.48;nan;101538.84;5047873;28;20039;-61
2022/08/13 01:07:51;;;;;;;7.72;7.03;;;;;;;18.58;nan;101543.69;5052293;28;20274;-61
2022/08/13 01:10:17;;;;;;;7.25;6.55;;;;;;;18.57;nan;101550.81;5050942;28;20033;-60
2022/08/13 01:12:45;;;;;;;7.25;6.55;;;;;;;18.54;nan;101550.97;5050810;28;20029;-61
2022/08/13 01:15:12;;;;;;;7.35;6.75;;;;;;;18.25;nan;101507.22;5051174;28;20094;-60
2022/08/13 01:17:39;;;;;;;7.05;6.35;;;;;;;18.37;nan;101543.00;5052157;28;20033;-61
2022/08/13 01:20:05;;;;;;;8.25;6.82;;;;;;;18.38;nan;101550.94;5051265;28;20078;-60
2022/08/13 01:22:32;;;;;;;8.43;7.20;;;;;;;18.12;nan;101513.28;5052341;28;20041;-60
2022/08/13 01:24:58;;;;;;;9.13;7.07;;;;;;;17.85;nan;101478.28;5052150;28;20033;-60
2022/08/13 01:27:26;;;;;;;8.52;7.75;;;;;;;18.05;nan;101512.72;5050673;28;20142;-60
2022/08/13 01:29:52;;;;;;;7.40;6.70;;;;;;;18.10;nan;101523.13;5050588;28;20040;-60
2022/08/13 01:32:21;;;;;;;7.97;7.32;;;;;;;18.20;nan;101549.22;5050939;28;20083;-60
2022/08/13 01:34:48;;;;;;;7.32;6.35;;;;;;;18.25;nan;101557.84;5050742;28;20206;-61
2022/08/13 01:37:15;;;;;;;8.40;6.57;;;;;;;18.22;nan;101560.66;5051990;28;20037;-61
2022/08/13 01:39:40;;;;;;;9.85;7.47;;;;;;;18.14;nan;101552.22;5051664;28;20036;-62
2022/08/13 01:42:20;;;;;;;8.18;7.18;;;;;;;18.18;nan;101567.13;5035576;28;20510;-61
2022/08/13 01:44:47;;;;;;;9.82;7.47;;;;;;;17.85;nan;101504.94;5056044;28;20401;-61
2022/08/13 01:52:41;;;;;;;7.57;6.88;;;;;;;17.79;nan;101515.91;5055532;28;20152;-60
2022/08/13 01:55:07;;;;;;;8.30;7.28;;;;;;;18.03;nan;101559.91;5055986;28;20528;-62
2022/08/13 01:57:36;;;;;;;7.57;6.88;;;;;;;18.01;nan;101560.94;5047506;28;20060;-60
2022/08/13 02:00:06;;;;;;;10.15;6.80;;;;;;;17.70;nan;101508.38;5015920;28;20030;-61
2022/08/13 02:02:31;;;;;;;9.45;6.82;;;;;;;17.69;nan;101504.84;5014516;28;20026;-61
2022/08/13 02:04:56;;;;;;;11.95;6.53;;;;;;;17.97;nan;101563.75;5014493;28;20455;-60
2022/08/13 02:07:22;;;;;;;8.18;7.38;;;;;;;17.81;nan;101538.84;5015566;28;20440;-61
2022/08/13 02:09:47;;;;;;;9.85;6.55;;;;;;;17.86;nan;101549.28;5015732;28;20042;-60
2022/08/13 02:12:14;;;;;;;9.07;7.18;;;;;;;17.87;nan;101562.50;5015772;28;20045;-60
2022/08/13 02:14:43;;;;;;;7.93;7.22;;;;;;;17.59;nan;101524.03;5015597;28;20034;-61
2022/08/13 02:17:25;;;;;;;9.50;7.38;;;;;;;17.74;nan;101564.06;5014383;28;20048;-60
2022/08/13 02:19:53;;;;;;;8.15;7.35;;;;;;;17.49;nan;101522.72;5014427;28;20412;-59
2022/08/13 02:22:18;;;;;;;7.55;6.80;;;;;;;17.43;nan;101521.25;5015277;28;20117;-60
2022/08/13 02:24:56;;;;;;;8.00;7.30;;;;;;;17.37;nan;101522.41;5014136;28;20076;-61
2022/08/13 02:27:24;;;;;;;10.75;8.13;;;;;;;17.50;nan;101541.31;5014245;28;20530;-59
2022/08/13 02:29:54;;;;;;;8.52;7.65;;;;;;;17.29;nan;101521.94;5015085;28;20049;-60
2022/08/13 02:32:22;;;;;;;7.90;7.22;;;;;;;17.47;nan;101567.19;5018154;28;20037;-60
2022/08/13 02:34:50;;;;;;;8.60;7.45;;;;;;;17.44;nan;101562.91;5015269;28;20038;-61
2022/08/13 02:37:16;;;;;;;7.60;6.90;;;;;;;17.44;nan;101568.22;5015287;28;20037;-61
2022/08/13 02:39:42;;;;;;;8.02;6.78;;;;;;;17.49;nan;101582.16;5015255;28;20169;-60
2022/08/13 02:42:09;;;;;;;7.20;6.43;;;;;;;17.37;nan;101558.81;5015053;28;20073;-61
2022/08/13 02:44:35;;;;;;;7.38;6.68;;;;;;;17.45;nan;101578.78;5014944;28;20076;-60
2022/08/13 02:47:03;;;;;;;8.68;6.55;;;;;;;17.15;nan;101520.88;4997502;28;20497;-60
2022/08/13 02:49:28;;;;;;;7.78;7.05;;;;;;;17.40;nan;101569.28;5015177;28;20044;-60
2022/08/13 02:51:54;;;;;;;7.40;6.70;;;;;;;17.34;nan;101567.81;5013461;28;20540;-58
2022/08/13 02:54:22;;;;;;;7.40;6.70;;;;;;;17.26;nan;101564.66;5013878;28;20449;-59
2022/08/13 02:56:48;;;;;;;7.70;6.95;;;;;;;17.21;nan;101560.50;5014667;28;20401;-61
2022/08/13 02:59:13;;;;;;;8.02;7.22;;;;;;;17.19;nan;101575.69;5014765;28;20052;-61
2022/08/13 03:01:40;;;;;;;7.07;6.00;;;;;;;17.11;nan;101556.53;5014868;28;20080;-61
2022/08/13 03:04:06;;;;;;;6.82;6.22;;;;;;;16.75;nan;101513.97;5014905;28;20073;-61
2022/08/13 03:06:32;;;;;;;7.60;6.47;;;;;;;16.76;nan;101516.53;5016476;28;20462;-59
2022/08/13 03:09:01;;;;;;;9.07;6.70;;;;;;;16.96;nan;101547.50;5034294;28;20481;-61
2022/08/13 03:11:28;;;;;;;7.10;6.40;;;;;;;16.95;nan;101559.09;5033174;28;20041;-60
2022/08/13 03:14:01;;;;;;;6.97;6.32;;;;;;;16.69;nan;101511.59;5049853;28;20045;-60
2022/08/13 03:16:27;;;;;;;6.95;6.32;;;;;;;16.75;nan;101533.41;5049824;28;20030;-59
2022/08/13 03:18:54;;;;;;;7.03;6.32;;;;;;;16.95;nan;101563.53;5034319;28;20040;-62
2022/08/13 03:21:31;;;;;;;9.32;7.45;;;;;;;16.93;nan;101566.25;5032654;28;20124;-60
2022/08/13 03:23:56;;;;;;;7.97;6.07;;;;;;;16.88;nan;101568.28;5049522;28;20060;-62
2022/08/13 03:26:22;;;;;;;7.75;6.35;;;;;;;16.81;nan;101565.03;5032577;28;20438;-60
2022/08/13 03:28:51;;;;;;;8.60;6.70;;;;;;;16.73;nan;101561.00;5032908;28;20063;-61
2022/08/13 03:31:20;;;;;;;7.03;5.93;;;;;;;16.71;nan;101552.25;5032809;28;20037;-60
2022/08/13 03:33:46;;;;;;;7.22;5.90;;;;;;;16.42;nan;101505.72;5033951;28;20040;-61
2022/08/13 03:36:11;;;;;;;6.50;6.00;;;;;;;16.75;nan;101575.13;5016250;28;20385;-61
2022/08/13 03:38:37;;;;;;;6.43;5.75;;;;;;;16.39;nan;101510.31;5033701;28;20447;-61
2022/08/13 03:41:12;;;;;;;7.28;6.20;;;;;;;16.40;nan;101512.91;5033913;28;20033;-60
2022/08/13 03:43:42;;;;;;;5.97;5.40;;;;;;;16.36;nan;101506.00;5033518;28;20538;-61
2022/08/13 03:46:12;;;;;;;6.20;5.70;;;;;;;16.67;nan;101570.13;5033659;28;20407;-61
2022/08/13 03:48:39;;;;;;;6.77;6.17;;;;;;;16.51;nan;101542.50;5033591;28;20466;-62
2022/08/13 03:51:06;;;;;;;8.18;5.57;;;;;;;16.60;nan;101575.81;5033609;28;20037;-59
2022/08/13 03:53:31;;;;;;;7.72;5.65;;;;;;;;;;5033553;28;20493;-60
2022/08/13 03:55:58;;;;;;;7.63;6.15;;;;;;;;;;5032348;28;20033;-60
2022/08/13 03:58:24;;;;;;;8.52;5.93;;;;;;;;;;5031268;28;20048;-60
2022/08/13 04:00:49;;;;;;;8.32;5.82;;;;;;;;;;5016939;28;20046;-59
2022/08/13 04:03:20;;;;;;;7.60;6.33;;;;;;;;;;5013530;28;20030;-60
2022/08/13 04:05:46;;;;;;;7.15;5.82;;;;;;;;;;5013308;28;20644;-60
2022/08/13 04:08:12;;;;;;;6.80;5.90;;;;;;;;;;5013697;28;20042;-60
2022/08/13 04:10:37;;;;;;;8.93;6.28;;;;;;;;;;5012293;28;20034;-60
2022/08/13 04:13:03;;;;;;;6.63;6.03;;;;;;;;;;5013352;28;20034;-60
2022/08/13 04:15:29;;;;;;;9.05;5.82;;;;;;;;;;5013368;28;20497;-60
2022/08/13 04:17:54;;;;;;;9.02;5.72;;;;;;;;;;5013429;28;20038;-59
2022/08/13 04:20:20;;;;;;;8.30;5.80;;;;;;;;;;5013153;28;20164;-60
2022/08/13 04:22:45;;;;;;;8.98;6.45;;;;;;;;;;5013511;28;20370;-61
2022/08/13 04:25:11;;;;;;;6.40;5.90;;;;;;;;;;5013228;28;20030;-60
2022/08/13 04:27:36;;;;;;;6.18;5.70;;;;;;;;;;5012080;28;20691;-59
2022/08/13 04:30:03;;;;;;;6.80;6.18;;;;;;;;;;5013565;28;20037;-60
2022/08/13 04:32:28;;;;;;;6.10;5.60;;;;;;;;;;5013148;28;20026;-61
2022/08/13 04:34:54;;;;;;;6.95;6.35;;;;;;;;;;5012962;28;20042;-62
2022/08/13 04:37:20;;;;;;;7.75;6.18;;;;;;;;;;5011899;28;20030;-60
2022/08/13 04:39:45;;;;;;;7.03;6.32;;;;;;;;;;5011850;28;20033;-61
2022/08/13 04:42:11;;;;;;;8.33;5.70;;;;;;;;;;5012988;28;20065;-60
2022/08/13 04:44:37;;;;;;;5.93;5.38;;;;;;;;;;5013151;28;20385;-61
2022/08/13 04:47:04;;;;;;;7.97;6.03;;;;;;;;;;5012953;28;20120;-60
2022/08/13 04:49:29;;;;;;;6.43;5.93;;;;;;;;;;5012867;28;20042;-60
2022/08/13 04:51:54;;;;;;;6.72;5.50;;;;;;;;;;5012393;28;20045;-59
2022/08/13 04:54:20;;;;;;;6.97;6.00;;;;;;;;;;5029339;28;20462;-60
2022/08/13 04:56:45;;;;;;;8.43;5.80;;;;;;;;;;5032661;28;20037;-60
2022/08/13 04:59:11;;;;;;;7.28;6.03;;;;;;;;;;5032501;28;20170;-59
2022/08/13 05:01:37;;;;;;;6.57;5.95;;;;;;;;;;5032314;28;20112;-60
2022/08/13 05:04:03;;;;;;;6.18;5.55;;;;;;;;;;5032334;28;20028;-59
2022/08/13 05:06:28;;;;;;;6.63;5.57;;;;;;;;;;5032333;28;20384;-58
2022/08/13 05:08:55;;;;;;;11.63;5.60;;;;;;;;;;5032206;28;20439;-60
2022/08/13 05:11:20;;;;;;;8.02;5.43;;;;;;;;;;5032425;28;20087;-59
2022/08/13 05:13:46;;;;;;;7.10;5.47;;;;;;;;;;5032085;28;20045;-61
2022/08/13 05:16:13;;;;;;;6.45;5.80;;;;;;;;;;5031725;28;20034;-60
2022/08/13 05:18:44;;;;;;;8.18;5.95;;;;;;;;;;5032020;28;20124;-60
2022/08/13 05:21:09;;;;;;;;;;;;;;;;;;5032638;28;20046;-58
2022/08/13 05:23:35;;;;;;;6.90;6.07;;;;;;;;;;5032152;28;19959;-60
2022/08/13 05:26:00;;;;;;;7.55;5.80;;;;;;;;;;5032144;28;20472;-59
2022/08/13 05:28:26;;;;;;;6.45;5.90;;;;;;;;;;5031962;28;20428;-61
2022/08/13 05:30:51;;;;;;;5.82;5.30;;;;;;;;;;5032029;28;20106;-60
2022/08/13 05:33:18;;;;;;;5.97;5.30;;;;;;;;;;5032347;28;20536;-60
2022/08/13 05:35:47;;;;;;;6.10;5.60;;;;;;;;;;5031862;28;20500;-59
2022/08/13 05:38:13;;;;;;;6.10;5.50;;;;;;;;;;5032029;28;20484;-59
2022/08/13 05:40:38;;;;;;;8.65;5.43;;;;;;;;;;5032080;28;20073;-59
2022/08/13 05:43:24;;;;;;;5.95;4.93;;;;;;;;;;5031929;28;20472;-59
2022/08/13 05:45:54;;;;;;;9.98;5.45;;;;;;;;;;5031406;28;20042;-61
2022/08/13 05:48:19;;;;;;;6.07;5.40;;;;;;;;;;5019276;28;20038;-58
2022/08/13 05:50:45;;;;;;;6.70;5.32;;;;;;;;;;5011945;28;20115;-60
2022/08/13 05:53:11;;;;;;;7.40;4.80;;;;;;;;;;5011838;28;20058;-58
2022/08/13 05:55:38;;;;;;;4.97;4.55;;;;;;;;;;5010614;28;20022;-59
2022/08/13 05:58:07;;;;;;;5.50;4.68;;;;;;;;;;5012094;28;20030;-60
2022/08/13 06:03:27;;;;;;;4.65;4.25;;;;;;;;;;5012203;28;20057;-60
2022/08/13 06:05:54;;;;;;;7.93;4.40;;;;;;;;;;5012056;28;20045;-60
2022/08/13 06:08:27;;;;;;;7.28;4.50;;;;;;;;;;5011815;28;20431;-59
2022/08/13 06:10:52;;;;;;;5.07;4.20;;;;;;;;;;5011880;28;20536;-58
2022/08/13 06:13:17;;;;;;;4.10;3.70;;;;;;;;;;5011872;28;20121;-59
2022/08/13 06:15:43;;;;;;;7.47;4.18;;;;;;;;;;5011734;28;20062;-60
2022/08/13 06:18:09;;;;;;;3.90;3.47;;;;;;;;;;5011786;28;20085;-59
2022/08/13 06:20:34;;;;;;;5.20;3.88;;;;;;;;;;5011812;28;20512;-59
2022/08/13 06:23:00;;;;;;;3.70;3.40;;;;;;;;;;5012135;28;20038;-60
2022/08/13 06:25:27;;;;;;;6.72;3.92;;;;;;;;;;5011770;28;20802;-59
2022/08/13 06:27:52;;;;;;;3.88;3.38;;;;;;;;;;5011948;28;20030;-60
2022/08/13 06:30:18;;;;;;;5.45;3.25;;;;;;;;;;5014960;28;20490;-58
2022/08/13 06:32:44;;;;;;;4.70;3.17;;;;;;;;;;5015204;28;20079;-59
2022/08/13 06:35:09;;;;;;;7.65;5.35;;;;;;;;;;5015133;28;20049;-58
2022/08/13 06:37:34;;;;;;;4.05;3.67;;;;;;;;;;5015124;28;20108;-59
2022/08/13 06:40:01;;;;;;;5.43;2.87;;;;;;;;;;5015080;28;20038;-59
2022/08/13 06:42:26;;;;;;;4.05;3.30;;;;;;;;;;5028856;28;20490;-59
2022/08/13 06:44:54;;;;;;;4.32;2.92;;;;;;;;;;5034898;28;20128;-59
2022/08/13 06:47:19;;;;;;;3.78;3.03;;;;;;;;;;5034891;28;20048;-58
2022/08/13 06:49:45;;;;;;;3.17;2.70;;;;;;;;;;5034480;28;20033;-60
2022/08/13 06:52:10;;;;;;;4.20;2.97;;;;;;;;;;5034524;28;20054;-59
2022/08/13 06:54:35;;;;;;;4.33;2.57;;;;;;;;;;5034386;28;20033;-60
2022/08/13 06:57:01;;;;;;;5.00;3.07;;;;;;;;;;5034532;28;20288;-60
2022/08/13 06:59:27;;;;;;;4.88;2.78;;;;;;;;;;5034258;28;20164;-60
2022/08/13 07:01:57;;;;;;;3.45;2.80;;;;;;;;;;5034449;28;20037;-60
2022/08/13 07:04:23;;;;;;;4.47;2.55;;;;;;;;;;5032946;28;20037;-59
2022/08/13 07:06:48;;;;;;;6.32;2.60;;;;;;;;;;5034357;28;20033;-60
2022/08/13 07:09:14;;;;;;;5.78;2.75;;;;;;;;;;5049696;28;20037;-60
2022/08/13 07:11:45;;;;;;;4.18;2.60;;;;;;;;;;5034304;28;20033;-60
2022/08/13 07:14:11;;;;;;;5.45;2.97;;;;;;;;;;5040176;28;20037;-61
2022/08/13 07:16:37;;;;;;;2.90;2.40;;;;;;;;;;5053423;28;20499;-59
2022/08/13 07:19:03;;;;;;;4.13;2.08;;;;;;;;;;5053595;28;20113;-60
2022/08/13 07:21:29;;;;;;;3.72;1.88;;;;;;;;;;5053856;28;20072;-59
2022/08/13 07:23:55;;;;;;;3.92;1.90;;;;;;;;;;5054169;28;20260;-60
2022/08/13 07:26:21;;;;;;;3.33;1.63;;;;;;;;;;5053750;28;20149;-60
2022/08/13 07:28:49;;;;;;;3.50;1.85;;;;;;;;;;5052683;28;20041;-60
2022/08/13 07:31:21;;;;;;;3.63;2.00;;;;;;;23.79;nan;101663.41;5053651;28;20034;-61
2022/08/13 07:33:54;;;;;;;1.65;1.55;;;;;;;23.98;nan;101664.59;5036578;28;20045;-60
2022/08/13 07:36:21;;;;;;;2.60;2.00;;;;;;;24.15;nan;101665.16;5027863;28;20485;-59
2022/08/13 07:38:47;;;;;;;2.50;1.77;;;;;;;24.12;nan;101634.00;5029177;28;20029;-60
2022/08/13 07:41:13;;;;;;;2.55;2.15;;;;;;;24.54;nan;101684.53;5012392;28;20100;-57
2022/08/13 07:43:43;;;;;;;3.92;1.80;;;;;;;24.79;nan;101680.75;5013926;28;20481;-57
2022/08/13 07:46:15;;;;;;;6.10;2.20;;;;;;;24.97;nan;101655.09;5012555;28;20038;-50
2022/08/13 07:48:42;;;;;;;7.38;2.10;;;;;;;25.63;nan;101672.19;5013724;28;20505;-53
2022/08/13 07:51:18;;;;;;;5.43;1.95;;;;;;;26.42;nan;101687.97;5013769;28;20038;-52
2022/08/13 07:53:44;;;;;;;3.97;1.60;;;;;;;27.17;nan;101695.84;5013196;28;20117;-60
2022/08/13 07:56:09;;;;;;;2.25;1.85;;;;;;;27.72;nan;101697.19;5013373;28;20061;-55
2022/08/13 07:58:36;;;;;;;5.55;1.77;;;;;;;28.13;nan;101655.53;5013355;28;20048;-53
2022/08/13 08:01:02;;;;;;;4.53;1.90;;;;;;;28.88;nan;101683.50;5012261;28;20036;-51
2022/08/13 08:03:41;;;;;;;4.28;2.10;;;;;;;29.35;nan;101697.06;5012421;28;20145;-48
2022/08/13 08:06:14;;;;;;;3.05;1.73;;;;;;;29.85;nan;101692.06;5013680;28;20289;-54
2022/08/13 08:08:42;;;;;;;4.57;1.98;;;;;;;30.02;nan;101648.66;5013309;28;20084;-52
2022/08/13 08:11:08;;;;;;;2.13;1.58;;;;;;;30.35;nan;101682.38;5013435;28;20465;-55
2022/08/13 08:13:34;;;;;;;5.78;2.03;;;;;;;30.55;nan;101662.19;5013068;28;20038;-56
2022/08/13 08:16:02;;;;;;;4.22;1.70;;;;;;;30.70;nan;101653.44;5013496;28;20033;-57
2022/08/13 08:18:27;;;;;;;3.90;1.92;;;;;;;31.17;nan;101696.38;5012019;28;20038;-56
2022/08/13 08:21:07;;;;;;;3.90;1.60;;;;;;;31.39;nan;101694.97;5013251;28;20041;-56
2022/08/13 08:23:35;;;;;;;4.28;1.80;;;;;;;31.32;nan;101701.25;5013128;28;20441;-58
2022/08/13 08:26:06;;;;;;;2.47;1.77;;;;;;;31.32;nan;101696.63;5012983;28;20034;-54
2022/08/13 08:28:32;;;;;;;2.40;1.65;;;;;;;31.32;nan;101703.97;4995905;28;20116;-56
2022/08/13 08:30:57;;;;;;;3.45;1.50;;;;;;;31.25;nan;101705.63;5016542;28;20121;-57
2022/08/13 08:33:26;;;;;;;2.95;1.52;;;;;;;31.29;nan;101666.19;5013080;28;21138;-56
2022/08/13 08:35:51;;;;;;;2.15;1.27;;;;;;;31.65;nan;101703.06;5011455;28;20470;-57
2022/08/13 08:43:45;;;;;;;4.25;1.60;;;;;;;32.06;nan;101661.34;5012008;28;20040;-53
2022/08/13 08:46:11;;;;;;;6.15;1.42;;;;;;;32.41;nan;101700.16;4995142;28;20030;-55
2022/08/13 08:48:37;;;;;;;3.70;1.48;;;;;;;32.49;nan;101679.19;5011273;28;20034;-57
2022/08/13 08:51:03;;;;;;;6.20;1.80;;;;;;;32.69;nan;101694.19;5011772;28;20095;-56
2022/08/13 08:53:28;;;;;;;2.47;1.50;;;;;;;32.88;nan;101703.03;5010951;28;20053;-54
2022/08/13 08:55:54;;;;;;;3.15;1.45;;;;;;;33.22;nan;101707.22;5012705;28;20045;-55
2022/08/13 08:58:22;;;;;;;3.47;1.38;;;;;;;32.98;nan;101677.28;5012461;28;20045;-55
2022/08/13 09:00:49;;;;;;;2.88;1.20;;;;;;;33.38;nan;101692.69;5012586;28;20120;-55
2022/08/13 09:03:18;;;;;;;4.93;1.80;;;;;;;33.38;nan;101700.88;5012533;28;20190;-57
2022/08/13 09:05:45;;;;;;;6.28;1.90;;;;;;;33.51;nan;101690.22;5012387;28;20592;-51
2022/08/13 09:08:14;;;;;;;3.97;1.70;;;;;;;33.55;nan;101686.09;5012367;28;20408;-58
2022/08/13 09:10:40;;;;;;;3.55;1.60;;;;;;;33.55;nan;101653.34;5012553;28;20038;-55
2022/08/13 09:13:06;;;;;;;3.63;1.70;;;;;;;33.79;nan;101693.34;5011054;28;20048;-55
2022/08/13 09:15:34;;;;;;;5.10;1.40;;;;;;;33.84;nan;101690.91;5011256;28;20033;-53
2022/08/13 09:18:00;;;;;;;5.35;1.70;;;;;;;34.01;nan;101689.78;5011110;28;20147;-55
2022/08/13 09:20:28;;;;;;;8.68;2.08;;;;;;;34.14;nan;101694.66;5010874;28;20455;-56
2022/08/13 09:23:21;;;;;;;3.75;1.88;;;;;;;34.35;nan;101687.50;5012031;28;20117;-52
2022/08/13 09:25:51;;;;;;;4.35;1.80;;;;;;;34.50;nan;101661.03;5008565;28;20038;-58
2022/08/13 09:28:23;;;;;;;2.80;1.83;;;;;;;34.47;nan;101668.78;5010989;28;20030;-57
2022/08/13 09:30:51;;;;;;;5.00;1.50;;;;;;;34.78;nan;101685.91;5027087;28;20033;-57
2022/08/13 09:33:18;;;;;;;5.38;2.15;;;;;;;34.63;nan;101687.78;5010845;28;20390;-54
2022/08/13 09:35:44;;;;;;;6.47;1.80;;;;;;;34.43;nan;101689.31;5027358;28;20029;-56
2022/08/13 09:38:09;;;;;;;4.22;1.33;;;;;;;34.29;nan;101690.13;5012117;28;20038;-53
2022/08/13 09:40:39;;;;;;;3.60;1.38;;;;;;;34.57;nan;101690.38;5012093;28;20473;-54
2022/08/13 09:43:08;;;;;;;3.90;1.50;;;;;;;34.02;nan;101658.69;5012133;28;20053;-55
2022/08/13 09:45:33;;;;;;;3.30;1.33;;;;;;;34.22;nan;101650.88;5011096;28;20039;-54
2022/08/13 09:47:59;;;;;;;4.22;1.60;;;;;;;34.60;nan;101690.88;5012374;28;20404;-57
2022/08/13 09:50:25;;;;;;;3.10;1.33;;;;;;;34.29;nan;101630.84;5012121;28;20473;-56
2022/08/13 09:52:55;;;;;;;2.33;1.02;;;;;;;34.70;nan;101682.41;5010549;28;20484;-53
2022/08/13 09:55:23;;;;;;;6.38;1.50;;;;;;;34.35;nan;101641.03;5011893;28;20030;-59
2022/08/13 09:57:54;;;;;;;3.15;1.40;;;;;;;34.44;nan;101636.34;5011858;28;20500;-57
2022/08/13 10:00:24;;;;;;;;;;;;;;;35.00;nan;101681.38;5012549;28;20080;-56
2022/08/13 10:02:52;;;;;;;;;;;;;;;35.20;nan;101681.72;5016609;28;19976;-54
2022/08/13 10:05:18;;;;;;;5.97;1.33;;;;;;;35.08;nan;101678.63;5030567;28;20288;-59
2022/08/13 10:07:45;;;;;;;3.60;1.50;;;;;;;35.37;nan;101685.94;5014405;28;20057;-57
2022/08/13 10:10:11;;;;;;;4.95;1.60;;;;;;;35.42;nan;101632.31;5015618;28;20030;-57
2022/08/13 10:12:36;;;;;;;2.28;1.27;;;;;;;35.63;nan;101675.34;5033493;28;20041;-56
2022/08/13 10:15:02;;;;;;;4.63;1.38;;;;;;;35.82;nan;101669.22;5035053;28;20046;-57
2022/08/13 10:17:43;;;;;;;1.58;1.23;;;;;;;35.84;nan;101666.31;5035082;28;20042;-58
2022/08/13 10:20:08;;;;;;;2.60;1.30;;;;;;;36.22;nan;101664.19;5017416;28;20026;-56
2022/08/13 10:22:34;;;;;;;2.20;1.40;;;;;;;36.35;nan;101664.28;5035115;28;20040;-56
2022/08/13 10:24:59;;;;;;;4.47;1.48;;;;;;;36.49;nan;101677.91;5033610;28;20041;-53
2022/08/13 10:27:25;;;;;;;5.85;1.58;;;;;;;36.29;nan;101662.34;5035320;28;20459;-56
2022/08/13 10:29:50;;;;;;;3.53;1.33;;;;;;;36.27;nan;101667.19;5035329;28;20457;-56
2022/08/13 10:32:15;;;;;;;3.13;1.57;;;;;;;36.21;nan;101662.47;5035087;28;20473;-57
2022/08/13 10:34:43;;;;;;;3.10;1.30;;;;;;;35.94;nan;101618.34;5034784;28;20357;-59
2022/08/13 10:37:08;;;;;;;3.78;1.20;;;;;;;35.75;nan;101618.16;5034792;28;20033;-57
2022/08/13 10:39:33;;;;;;;4.50;1.40;;;;;;;36.08;nan;101653.09;5034739;28;20117;-57
2022/08/13 10:42:00;;;;;;;3.30;1.17;;;;;;;36.22;nan;101612.97;5034989;28;20480;-54
2022/08/13 10:44:25;;;;;;;2.67;1.20;;;;;;;36.95;nan;101650.00;5034715;28;20287;-55
2022/08/13 10:46:51;;;;;;;3.35;1.65;;;;;;;36.97;nan;101606.72;5034528;28;20079;-56
2022/08/13 10:49:16;;;;;;;6.18;1.20;;;;;;;37.47;nan;101611.84;5034654;28;20040;-59
2022/08/13 10:51:41;;;;;;;2.93;1.00;;;;;;;37.97;nan;101651.72;5033496;28;20468;-57
2022/08/13 10:54:07;;;;;;;1.60;1.10;;;;;;;38.08;nan;101640.09;5033881;28;20355;-58
2022/08/13 10:56:33;;;;;;;3.55;1.10;;;;;;;37.47;nan;101621.97;5034603;28;20034;-57
2022/08/13 10:59:00;;;;;;;3.03;1.00;;;;;;;37.45;nan;101626.84;5034475;28;20061;-56
2022/08/13 11:01:26;;;;;;;2.70;1.20;;;;;;;37.87;nan;101643.00;5033760;28;20508;-56
2022/08/13 11:03:55;;;;;;;1.60;1.23;;;;;;;37.54;nan;101640.16;5034442;28;20033;-56
2022/08/13 11:06:21;;;;;;;2.00;1.20;;;;;;;37.45;nan;101638.66;5032274;28;20033;-57
2022/08/13 11:08:47;;;;;;;2.78;1.30;;;;;;;37.37;nan;101611.34;5034319;28;20044;-58
2022/08/13 11:11:13;;;;;;;4.30;1.38;;;;;;;37.06;nan;101614.63;5034461;28;20080;-60
2022/08/13 11:13:39;;;;;;;4.05;1.30;;;;;;;37.16;nan;101604.09;5032793;28;20111;-57
2022/08/13 11:16:44;;;;;;;2.20;1.20;;;;;;;37.77;nan;101628.81;5033627;28;20474;-57
2022/08/13 11:18:52;;;;;;;2.15;1.23;;;;;;;37.93;nan;101633.94;5034074;28;20183;-58
2022/08/13 11:21:18;;;;;;;1.40;1.20;;;;;;;38.54;nan;101628.25;5034068;28;20064;-57
2022/08/13 11:23:43;;;;;;;3.25;0.90;;;;;;;38.93;nan;101597.91;5034080;28;20481;-55
2022/08/13 11:26:10;;;;;;;3.15;1.13;;;;;;;38.95;nan;101601.28;5032650;28;20034;-58
2022/08/13 11:28:35;;;;;;;2.88;1.20;;;;;;;38.76;nan;101622.25;5032729;28;20029;-57
2022/08/13 11:31:00;;;;;;;4.03;1.30;;;;;;;38.71;nan;101575.28;5033950;28;20040;-59
2022/08/13 11:33:26;;;;;;;3.87;1.70;;;;;;;38.88;nan;101583.97;5033733;28;20116;-57
2022/08/13 11:35:54;;;;;;;4.10;1.30;;;;;;;38.52;nan;101581.72;5048995;28;20291;-57
2022/08/13 11:38:21;;;;;;;1.75;0.90;;;;;;;39.09;nan;101580.91;5033897;28;20083;-61
2022/08/13 11:40:49;;;;;;;4.97;2.63;;;;;;;40.05;nan;101609.16;5033729;28;20033;-58
2022/08/13 11:43:14;;;;;;;1.08;0.95;;;;;;;40.75;nan;101607.09;5033583;28;20516;-58
2022/08/13 11:45:40;;;;;;;2.38;1.00;;;;;;;41.49;nan;101574.50;5033411;28;20041;-54
2022/08/13 11:48:06;;;;;;;3.55;1.88;;;;;;;41.46;nan;101602.59;5033489;28;20124;-59
2022/08/13 11:50:32;;;;;;;1.35;0.90;;;;;;;41.79;nan;101601.28;5033183;28;20045;-60
2022/08/13 11:52:57;;;;;;;2.42;0.85;;;;;;;41.50;nan;101559.59;5033219;28;20412;-60
2022/08/13 11:55:22;;;;;;;2.53;1.10;;;;;;;41.16;nan;101609.97;5033549;28;20068;-58
2022/08/13 11:57:48;;;;;;;1.80;1.10;;;;;;;41.37;nan;101601.25;5033396;28;20276;-57
2022/08/13 12:00:14;;;;;;;3.97;1.00;;;;;;;40.90;nan;101605.59;5022301;28;20810;-55
2022/08/13 12:02:40;;;;;;;1.23;0.95;;;;;;;40.36;nan;101609.16;5012092;28;20049;-58
2022/08/13 12:05:06;;;;;;;2.75;0.82;;;;;;;40.57;nan;101612.59;5013368;28;20033;-56
2022/08/13 12:07:31;;;;;;;2.03;0.77;;;;;;;40.50;nan;101609.00;5013238;28;20044;-56
2022/08/13 12:09:56;;;;;;;2.28;1.00;;;;;;;39.73;nan;101546.88;5012004;28;20490;-57
2022/08/13 12:12:22;;;;;;;0.93;0.70;;;;;;;40.16;nan;101611.25;5012041;28;20237;-57
2022/08/13 12:14:48;;;;;;;6.22;1.88;;;;;;;40.14;nan;101595.97;5013103;28;20041;-58
2022/08/13 12:17:13;;;;;;;4.47;1.00;;;;;;;39.97;nan;101601.19;5011769;28;20065;-55
2022/08/13 12:19:39;;;;;;;1.70;0.82;;;;;;;40.07;nan;101596.03;5013024;28;20072;-56
2022/08/13 12:22:05;;;;;;;1.33;0.80;;;;;;;39.87;nan;101551.22;5012969;28;20037;-58
2022/08/13 12:24:30;;;;;;;6.20;1.20;;;;;;;39.74;nan;101549.41;4995511;28;20288;-57
2022/08/13 12:26:55;;;;;;;5.10;1.40;;;;;;;40.06;nan;101586.03;5011771;28;20065;-58
2022/08/13 12:29:21;;;;;;;3.83;0.73;;;;;;;39.92;nan;101537.59;5012829;28;20041;-56
2022/08/13 12:31:46;;;;;;;5.00;1.00;;;;;;;40.32;nan;101593.25;5011657;28;20034;-57
2022/08/13 12:34:11;;;;;;;1.63;0.95;;;;;;;40.84;nan;101576.16;5012762;28;20289;-57
2022/08/13 12:36:36;;;;;;;4.73;1.00;;;;;;;40.72;nan;101520.03;5011624;28;20038;-57
2022/08/13 12:39:02;;;;;;;2.17;1.00;;;;;;;41.13;nan;101559.91;5012495;28;20818;-59
2022/08/13 12:41:29;;;;;;;1.40;1.10;;;;;;;40.79;nan;101572.41;5011297;28;20280;-57
2022/08/13 12:43:55;;;;;;;3.65;1.15;;;;;;;40.25;nan;101564.91;5012839;28;20045;-57
2022/08/13 12:46:20;;;;;;;4.33;1.17;;;;;;;40.04;nan;101524.78;5010892;28;20397;-58